Time;durP1;ratioP1;P1;durP2;ratioP2;P2;SDS_P1;SDS_P2;PMS_P1;PMS_P2;Temp;Humidity;BMP_temperature;BMP_pressure;BME280_temperature;BME280_humidity;BME280_pressure;Samples;Min_cycle;Max_cycle;Signal;HPM_P1;HPM_P2
2023/05/16 00:01:09;;;;;;;21.20;2.10;;;9.00;99.90;;;;;;4971732;28;20341;-66
2023/05/16 00:03:38;;;;;;;20.00;2.10;;;9.00;99.90;;;;;;4973902;28;20093;-66
2023/05/16 00:06:04;;;;;;;19.83;2.08;;;9.00;99.90;;;;;;4962973;28;20038;-67
2023/05/16 00:08:30;;;;;;;23.88;2.08;;;8.90;99.90;;;;;;4954480;28;20037;-66
2023/05/16 00:10:56;;;;;;;18.58;2.08;;;8.90;99.90;;;;;;4977076;28;20452;-66
2023/05/16 00:13:23;;;;;;;15.13;1.90;;;8.90;99.90;;;;;;4975977;28;20105;-66
2023/05/16 00:15:52;;;;;;;18.15;1.95;;;8.90;99.90;;;;;;4973497;28;20050;-67
2023/05/16 00:18:18;;;;;;;19.70;1.85;;;8.90;99.90;;;;;;4974131;28;20099;-66
2023/05/16 00:20:44;;;;;;;14.90;2.10;;;8.80;99.90;;;;;;4959184;28;20458;-65
2023/05/16 00:23:11;;;;;;;14.85;1.50;;;8.80;99.90;;;;;;4977197;28;20052;-65
2023/05/16 00:25:37;;;;;;;19.60;2.03;;;8.80;99.90;;;;;;4962103;28;20451;-65
2023/05/16 00:28:03;;;;;;;18.27;1.77;;;8.70;99.90;;;;;;4978190;28;20244;-66
2023/05/16 00:30:29;;;;;;;19.00;1.67;;;8.70;99.90;;;;;;4944795;28;20249;-65
2023/05/16 00:32:55;;;;;;;19.40;1.33;;;8.70;99.90;;;;;;4973406;28;20046;-65
2023/05/16 00:35:20;;;;;;;17.67;1.77;;;8.60;99.90;;;;;;4971922;28;21384;-65
2023/05/16 00:37:46;;;;;;;15.77;1.35;;;8.70;99.90;;;;;;4958022;28;20519;-65
2023/05/16 00:40:12;;;;;;;16.73;1.50;;;8.80;99.90;;;;;;4973755;28;20054;-66
2023/05/16 00:42:38;;;;;;;16.77;1.63;;;8.80;99.90;;;;;;4971292;28;20048;-65
2023/05/16 00:45:05;;;;;;;14.18;1.50;;;8.80;99.90;;;;;;4975697;28;20042;-65
2023/05/16 00:47:31;;;;;;;21.70;1.42;;;8.70;99.90;;;;;;4976073;28;20314;-65
2023/05/16 00:49:57;;;;;;;18.55;1.50;;;8.70;99.90;;;;;;4961238;28;20583;-65
2023/05/16 00:52:23;;;;;;;20.98;1.75;;;8.60;99.90;;;;;;4978328;28;20038;-65
2023/05/16 00:54:51;;;;;;;17.17;2.05;;;8.60;99.90;;;;;;4973953;28;20068;-65
2023/05/16 00:57:17;;;;;;;16.65;1.38;;;8.70;99.90;;;;;;4972304;28;20037;-65
2023/05/16 00:59:45;;;;;;;15.00;1.90;;;8.70;99.90;;;;;;4977332;28;20080;-65
2023/05/16 01:02:11;;;;;;;12.98;1.00;;;8.70;99.90;;;;;;4969785;28;20551;-65
2023/05/16 01:04:39;;;;;;;21.65;2.15;;;8.70;99.90;;;;;;4970689;28;20432;-66
2023/05/16 01:07:04;;;;;;;12.82;1.17;;;8.70;99.90;;;;;;4972666;28;20081;-65
2023/05/16 01:09:31;;;;;;;17.17;1.40;;;8.70;99.90;;;;;;4972516;28;20174;-65
2023/05/16 01:11:59;;;;;;;17.13;1.73;;;8.60;99.90;;;;;;4976928;28;20045;-65
2023/05/16 01:14:37;;;;;;;17.35;1.33;;;8.60;99.90;;;;;;4976591;28;20607;-65
2023/05/16 01:17:24;;;;;;;14.13;1.27;;;8.60;99.90;;;;;;4976843;28;20449;-65
2023/05/16 01:19:56;;;;;;;19.90;1.95;;;8.60;99.90;;;;;;4975232;28;20049;-65
2023/05/16 01:22:46;;;;;;;15.65;1.20;;;8.60;99.90;;;;;;4977541;28;20052;-65
2023/05/16 01:25:49;;;;;;;19.75;1.63;;;8.60;99.90;;;;;;4957464;28;20046;-65
2023/05/16 01:28:16;;;;;;;14.25;1.23;;;8.50;99.90;;;;;;4982598;28;20068;-64
2023/05/16 01:30:43;;;;;;;14.90;1.30;;;8.60;99.90;;;;;;4950937;28;20062;-65
2023/05/16 01:33:09;;;;;;;16.17;1.00;;;8.60;99.90;;;;;;4958716;28;20304;-66
2023/05/16 01:35:46;;;;;;;18.35;1.38;;;8.60;99.90;;;;;;4974693;28;20034;-65
2023/05/16 01:38:25;;;;;;;15.00;2.20;;;8.50;99.90;;;;;;4970554;28;20717;-65
2023/05/16 01:40:57;;;;;;;16.60;1.15;;;8.40;99.90;;;;;;4975844;28;20826;-65
2023/05/16 01:43:45;;;;;;;21.27;1.85;;;8.40;99.90;;;;;;4975214;28;20377;-65
2023/05/16 01:46:14;;;;;;;14.65;1.15;;;8.30;99.90;;;;;;4978531;28;20045;-65
2023/05/16 01:49:01;;;;;;;13.48;1.15;;;8.30;99.90;;;;;;4977831;28;20034;-65
2023/05/16 01:51:32;;;;;;;19.02;1.55;;;8.20;99.90;;;;;;4995997;28;20420;-66
2023/05/16 01:54:01;;;;;;;16.52;1.60;;;8.10;99.90;;;;;;4976554;28;20345;-65
2023/05/16 01:56:28;;;;;;;17.63;1.75;;;8.10;99.90;;;;;;4978712;28;20539;-65
2023/05/16 01:58:56;;;;;;;18.52;2.20;;;8.10;99.90;;;;;;4974803;28;20057;-65
2023/05/16 02:01:22;;;;;;;15.40;1.90;;;8.10;99.90;;;;;;4959518;28;20057;-65
2023/05/16 02:03:47;;;;;;;13.32;1.65;;;8.00;99.90;;;;;;4972421;28;20512;-65
2023/05/16 02:06:13;;;;;;;14.30;1.23;;;8.10;99.90;;;;;;4974984;28;20033;-66
2023/05/16 02:08:39;;;;;;;15.05;1.42;;;8.00;99.90;;;;;;4946721;28;20638;-65
2023/05/16 02:11:05;;;;;;;16.77;1.42;;;7.90;99.90;;;;;;4978300;28;20104;-65
2023/05/16 02:13:30;;;;;;;20.40;1.55;;;8.00;99.90;;;;;;4959062;28;20268;-66
2023/05/16 02:15:56;;;;;;;15.73;0.90;;;8.10;99.90;;;;;;4974552;28;20046;-65
2023/05/16 02:18:22;;;;;;;23.60;1.70;;;8.00;99.90;;;;;;4962435;28;20185;-65
2023/05/16 02:20:48;;;;;;;16.42;1.30;;;8.00;99.90;;;;;;4973863;28;20047;-66
2023/05/16 02:23:14;;;;;;;14.02;1.52;;;8.20;99.90;;;;;;4973132;28;20426;-65
2023/05/16 02:25:40;;;;;;;12.38;1.52;;;8.10;99.90;;;;;;4959687;28;20490;-65
2023/05/16 02:28:05;;;;;;;15.35;1.50;;;8.10;99.90;;;;;;4958174;28;20062;-65
2023/05/16 02:30:32;;;;;;;12.65;1.15;;;8.10;99.90;;;;;;4977126;28;20050;-67
2023/05/16 02:32:57;;;;;;;13.73;1.48;;;8.10;99.90;;;;;;4974000;28;20081;-66
2023/05/16 02:35:23;;;;;;;18.83;1.58;;;8.00;99.90;;;;;;4976623;28;20511;-65
2023/05/16 02:37:49;;;;;;;16.23;1.23;;;7.90;99.90;;;;;;4964959;28;20033;-65
2023/05/16 02:40:14;;;;;;;17.38;2.10;;;8.00;99.90;;;;;;4975299;28;20100;-65
2023/05/16 02:42:40;;;;;;;17.48;1.40;;;7.90;99.90;;;;;;4974283;28;20060;-65
2023/05/16 02:45:06;;;;;;;13.55;1.25;;;8.00;99.90;;;;;;4953458;28;20070;-65
2023/05/16 02:47:32;;;;;;;16.63;1.33;;;8.00;99.90;;;;;;4955021;28;20116;-65
2023/05/16 02:49:57;;;;;;;19.15;1.55;;;8.00;99.90;;;;;;4987925;28;20045;-64
2023/05/16 02:52:23;;;;;;;16.10;1.35;;;8.10;99.90;;;;;;4960094;28;20157;-65
2023/05/16 02:54:49;;;;;;;15.18;1.60;;;8.10;99.90;;;;;;4978304;28;20385;-66
2023/05/16 02:57:14;;;;;;;11.68;1.17;;;8.20;99.90;;;;;;4962356;28;20275;-65
2023/05/16 02:59:40;;;;;;;10.52;1.20;;;8.10;99.90;;;;;;4961878;28;20587;-65
2023/05/16 03:02:06;;;;;;;14.15;1.50;;;8.10;99.90;;;;;;4993182;28;20356;-65
2023/05/16 03:04:33;;;;;;;16.15;1.05;;;8.00;99.90;;;;;;4971813;28;20070;-65
2023/05/16 03:06:59;;;;;;;13.80;1.50;;;8.00;99.90;;;;;;4975044;28;20587;-65
2023/05/16 03:09:25;;;;;;;14.02;0.82;;;8.00;99.90;;;;;;4972912;28;20050;-64
2023/05/16 03:11:50;;;;;;;19.02;1.58;;;7.90;99.90;;;;;;4974772;28;20580;-65
2023/05/16 03:14:16;;;;;;;8.93;0.85;;;7.80;99.90;;;;;;4960045;28;20210;-65
2023/05/16 03:16:42;;;;;;;14.00;1.42;;;7.80;99.90;;;;;;4975954;28;20050;-65
2023/05/16 03:19:09;;;;;;;14.02;1.08;;;7.80;99.90;;;;;;4963803;28;20557;-65
2023/05/16 03:21:34;;;;;;;17.15;1.20;;;7.80;99.90;;;;;;4977809;28;20061;-65
2023/05/16 03:24:02;;;;;;;12.75;1.00;;;7.90;99.90;;;;;;4957709;28;20046;-65
2023/05/16 03:26:29;;;;;;;12.88;1.10;;;7.90;99.90;;;;;;4993561;28;20049;-65
2023/05/16 03:28:55;;;;;;;16.88;1.40;;;7.90;99.90;;;;;;4958242;28;20072;-65
2023/05/16 03:31:20;;;;;;;17.15;1.58;;;8.00;99.90;;;;;;4968685;28;20180;-64
2023/05/16 03:33:46;;;;;;;13.82;1.48;;;7.90;99.90;;;;;;4974735;28;20377;-65
2023/05/16 03:36:12;;;;;;;13.43;1.35;;;7.80;99.90;;;;;;4974094;28;20330;-65
2023/05/16 03:38:38;;;;;;;14.00;1.58;;;7.80;99.90;;;;;;4971776;28;21409;-65
2023/05/16 03:41:04;;;;;;;12.55;1.00;;;7.70;99.90;;;;;;5008856;28;20189;-67
2023/05/16 03:43:29;;;;;;;13.95;1.25;;;7.60;99.90;;;;;;4977883;28;20042;-65
2023/05/16 03:45:55;;;;;;;16.77;1.17;;;7.60;99.90;;;;;;4974153;28;20232;-65
2023/05/16 03:48:21;;;;;;;15.35;1.02;;;7.70;99.90;;;;;;4957952;28;20209;-65
2023/05/16 03:50:46;;;;;;;15.52;1.52;;;7.80;99.90;;;;;;4962460;28;20437;-66
2023/05/16 03:53:12;;;;;;;14.90;1.13;;;7.90;99.90;;;;;;4977142;28;20476;-65
2023/05/16 03:55:38;;;;;;;13.13;1.00;;;8.00;99.90;;;;;;4975814;28;20077;-64
2023/05/16 03:58:04;;;;;;;14.02;1.25;;;8.00;99.90;;;;;;4972752;28;20046;-65
2023/05/16 04:00:30;;;;;;;16.45;1.40;;;8.10;99.90;;;;;;4956124;28;20054;-65
2023/05/16 04:02:55;;;;;;;15.40;1.42;;;8.00;99.90;;;;;;4974979;28;20046;-65
2023/05/16 04:05:21;;;;;;;19.38;1.42;;;8.10;99.90;;;;;;4973369;28;20247;-65
2023/05/16 04:07:47;;;;;;;17.35;1.52;;;8.10;99.90;;;;;;4979083;28;20050;-65
2023/05/16 04:10:13;;;;;;;21.75;1.60;;;8.10;99.90;;;;;;4957721;28;20050;-65
2023/05/16 04:12:39;;;;;;;15.43;1.25;;;8.10;99.90;;;;;;4973080;28;20467;-65
2023/05/16 04:15:05;;;;;;;15.57;1.50;;;8.10;99.90;;;;;;4974250;28;20035;-65
2023/05/16 04:17:32;;;;;;;11.30;0.95;;;8.10;99.90;;;;;;4975657;28;20667;-65
2023/05/16 04:19:58;;;;;;;14.07;1.13;;;8.10;99.90;;;;;;4971734;28;20061;-65
2023/05/16 04:22:24;;;;;;;15.82;1.38;;;8.10;99.90;;;;;;4954904;28;20069;-64
2023/05/16 04:24:50;;;;;;;17.05;1.63;;;8.10;99.90;;;;;;4960004;28;20042;-65
2023/05/16 04:27:16;;;;;;;11.57;1.02;;;8.10;99.90;;;;;;4989625;28;20037;-65
2023/05/16 04:29:42;;;;;;;13.80;1.50;;;8.20;99.90;;;;;;4972356;28;20338;-65
2023/05/16 04:32:08;;;;;;;14.70;1.33;;;8.20;99.90;;;;;;4976314;28;20129;-65
2023/05/16 04:34:36;;;;;;;14.20;1.33;;;8.20;99.90;;;;;;4974959;28;20155;-65
2023/05/16 04:37:04;;;;;;;7.82;0.98;;;8.30;99.90;;;;;;4954567;28;20306;-66
2023/05/16 04:39:30;;;;;;;14.25;1.10;;;8.40;99.90;;;;;;4972305;28;20149;-65
2023/05/16 04:41:58;;;;;;;14.25;1.10;;;8.50;99.90;;;;;;4973390;28;20109;-65
2023/05/16 04:44:26;;;;;;;16.13;1.75;;;8.50;99.90;;;;;;4972767;28;20362;-65
2023/05/16 04:46:52;;;;;;;12.65;1.00;;;8.50;99.90;;;;;;4977824;28;20279;-64
2023/05/16 04:49:19;;;;;;;13.63;1.00;;;8.60;99.90;;;;;;4978919;28;20406;-65
2023/05/16 04:51:46;;;;;;;11.07;1.00;;;8.60;99.90;;;;;;4979064;28;20033;-65
2023/05/16 04:54:12;;;;;;;12.05;1.02;;;8.60;99.90;;;;;;4962256;28;20054;-65
2023/05/16 04:56:37;;;;;;;8.35;0.70;;;8.70;99.90;;;;;;4959529;28;20111;-65
2023/05/16 04:59:03;;;;;;;16.42;1.00;;;8.80;99.90;;;;;;4957994;28;20077;-65
2023/05/16 05:01:29;;;;;;;11.02;1.00;;;8.90;99.90;;;;;;4959685;28;20664;-65
2023/05/16 05:03:55;;;;;;;10.95;1.20;;;8.90;99.90;;;;;;5005456;28;20054;-65
2023/05/16 05:06:20;;;;;;;10.65;0.70;;;9.00;99.90;;;;;;4972739;28;20038;-64
2023/05/16 05:08:46;;;;;;;8.93;0.70;;;9.10;99.90;;;;;;4977951;28;20053;-66
2023/05/16 05:11:12;;;;;;;14.40;1.13;;;9.20;99.90;;;;;;4973742;28;20046;-65
2023/05/16 05:13:38;;;;;;;11.50;0.80;;;9.20;99.90;;;;;;4991310;28;20034;-65
2023/05/16 05:16:04;;;;;;;11.15;0.70;;;9.30;99.90;;;;;;4973188;28;20065;-65
2023/05/16 05:18:30;;;;;;;10.00;0.82;;;9.20;99.90;;;;;;4991314;28;20042;-67
2023/05/16 05:20:56;;;;;;;9.60;0.52;;;9.10;99.90;;;;;;4974322;28;20115;-65
2023/05/16 05:23:22;;;;;;;11.77;0.60;;;9.00;99.90;;;;;;4958401;28;20875;-66
2023/05/16 05:25:49;;;;;;;8.00;0.55;;;9.00;99.90;;;;;;4978928;28;20111;-65
2023/05/16 05:28:16;;;;;;;12.32;1.05;;;9.00;99.90;;;;;;4943065;28;20151;-64
2023/05/16 05:30:41;;;;;;;11.05;1.15;;;8.90;99.90;;;;;;4970900;28;20093;-64
2023/05/16 05:33:07;;;;;;;11.90;0.95;;;8.90;99.90;;;;;;4960629;28;20448;-65
2023/05/16 05:35:33;;;;;;;10.75;0.85;;;8.90;99.90;;;;;;4973970;28;20133;-65
2023/05/16 05:37:58;;;;;;;12.45;1.08;;;9.00;99.90;;;;;;4942678;28;20053;-65
2023/05/16 05:40:24;;;;;;;10.98;1.00;;;9.10;99.90;;;;;;4961903;28;20478;-66
2023/05/16 05:42:50;;;;;;;10.13;0.80;;;9.20;99.90;;;;;;4953108;28;20068;-65
2023/05/16 05:45:16;;;;;;;15.60;1.20;;;9.60;99.90;;;;;;4955307;28;20034;-65
2023/05/16 05:47:42;;;;;;;10.18;1.00;;;10.00;99.90;;;;;;4956349;28;20050;-64
2023/05/16 05:50:10;;;;;;;13.82;1.00;;;10.60;99.90;;;;;;4959243;28;20042;-64
2023/05/16 05:52:36;;;;;;;11.70;0.93;;;11.00;99.90;;;;;;4973229;28;20062;-65
2023/05/16 05:55:02;;;;;;;9.98;0.88;;;11.10;96.80;;;;;;4960138;28;20376;-68
2023/05/16 05:57:28;;;;;;;12.38;1.00;;;10.90;99.90;;;;;;4957477;28;20197;-63
2023/05/16 05:59:54;;;;;;;10.90;0.80;;;10.50;99.90;;;;;;4959699;28;20053;-64
2023/05/16 06:02:20;;;;;;;10.82;1.33;;;10.10;99.90;;;;;;4957769;28;20145;-63
2023/05/16 06:04:46;;;;;;;10.85;0.75;;;9.80;99.90;;;;;;4959560;28;20318;-65
2023/05/16 06:07:12;;;;;;;8.95;0.90;;;9.60;99.90;;;;;;4971503;28;20117;-65
2023/05/16 06:09:37;;;;;;;9.80;0.77;;;9.50;99.90;;;;;;4955930;28;20038;-63
2023/05/16 06:12:03;;;;;;;9.77;0.75;;;9.50;99.90;;;;;;4970272;28;20191;-64
2023/05/16 06:14:29;;;;;;;10.63;0.85;;;9.80;99.90;;;;;;4973759;28;20441;-64
2023/05/16 06:16:55;;;;;;;8.48;0.82;;;10.20;99.90;;;;;;4972929;28;20180;-65
2023/05/16 06:19:21;;;;;;;9.95;0.68;;;10.30;56.70;;;;;;4972611;28;20382;-66
2023/05/16 06:21:46;;;;;;;10.38;1.20;;;10.70;42.00;;;;;;4976918;28;20179;-65
2023/05/16 06:24:12;;;;;;;11.85;1.00;;;11.00;1.00;;;;;;4940526;28;20039;-64
2023/05/16 06:26:38;;;;;;;12.57;0.90;;;11.30;1.00;;;;;;4974924;28;20033;-64
2023/05/16 06:29:04;;;;;;;8.43;1.00;;;11.50;5.50;;;;;;4957159;28;20073;-65
2023/05/16 06:31:31;;;;;;;6.93;0.47;;;11.40;1.00;;;;;;4978236;28;20041;-64
2023/05/16 06:33:56;;;;;;;7.07;0.88;;;11.20;1.00;;;;;;4971531;28;20242;-64
2023/05/16 06:36:22;;;;;;;8.50;0.93;;;10.90;1.00;;;;;;4954262;28;20702;-65
2023/05/16 06:38:49;;;;;;;8.68;0.88;;;10.90;1.00;;;;;;4958770;28;20662;-64
2023/05/16 06:41:15;;;;;;;7.43;0.93;;;11.20;29.40;;;;;;4977594;28;20045;-66
2023/05/16 06:43:40;;;;;;;8.00;0.80;;;11.20;1.00;;;;;;4959899;28;20500;-65
2023/05/16 06:46:06;;;;;;;6.03;0.60;;;11.30;1.00;;;;;;4981723;28;20045;-66
2023/05/16 06:48:32;;;;;;;8.68;0.70;;;11.40;1.00;;;;;;4979278;28;20038;-65
2023/05/16 06:50:57;;;;;;;8.52;0.80;;;11.50;1.00;;;;;;4983562;28;20049;-65
2023/05/16 06:53:23;;;;;;;7.63;0.68;;;11.60;99.90;;;;;;4949150;28;20042;-66
2023/05/16 06:55:49;;;;;;;7.28;0.75;;;11.80;99.90;;;;;;4963710;28;20046;-65
2023/05/16 06:58:14;;;;;;;11.43;1.42;;;12.00;99.90;;;;;;4993771;28;20030;-65
2023/05/16 07:00:40;;;;;;;13.20;1.20;;;11.80;99.90;;;;;;4981494;28;20578;-65
2023/05/16 07:03:06;;;;;;;14.15;1.65;;;11.80;99.90;;;;;;4960349;28;20049;-65
2023/05/16 07:05:32;;;;;;;13.18;1.23;;;11.60;1.00;;;;;;4995590;28;20499;-66
2023/05/16 07:07:58;;;;;;;9.68;0.95;;;11.20;99.90;;;;;;4964438;28;20061;-66
2023/05/16 07:10:24;;;;;;;10.82;0.98;;;10.90;99.90;;;;;;4981424;28;20046;-67
2023/05/16 07:12:50;;;;;;;13.30;0.85;;;10.80;1.00;;;;;;4952527;28;20136;-65
2023/05/16 07:15:15;;;;;;;10.00;1.10;;;11.10;1.00;;;;;;4965840;28;20128;-69
2023/05/16 07:17:41;;;;;;;7.00;0.82;;;11.20;99.90;;;;;;4948506;28;20061;-66
2023/05/16 07:20:12;;;;;;;10.07;0.88;;;11.10;1.00;;;;;;4964932;28;20044;-65
2023/05/16 07:22:38;;;;;;;8.85;0.95;;;11.60;1.00;;;;;;4966523;28;20186;-65
2023/05/16 07:25:04;;;;;;;9.43;0.60;;;12.00;99.90;;;;;;4961609;28;20064;-66
2023/05/16 07:27:30;;;;;;;9.82;0.82;;;11.90;99.90;;;;;;4982556;28;20132;-68
2023/05/16 07:29:56;;;;;;;9.57;0.60;;;12.00;99.90;;;;;;4963655;28;20687;-65
2023/05/16 07:32:22;;;;;;;9.98;0.90;;;12.40;99.90;;;;;;4974844;28;20230;-65
2023/05/16 07:34:48;;;;;;;10.77;1.17;;;12.60;99.90;;;;;;4947927;28;20053;-66
2023/05/16 07:37:15;;;;;;;9.00;1.10;;;12.30;99.90;;;;;;4977561;28;20152;-66
2023/05/16 07:39:41;;;;;;;7.70;0.70;;;11.90;99.90;;;;;;4960736;28;20038;-66
2023/05/16 07:42:07;;;;;;;9.00;0.90;;;11.40;99.90;;;;;;4983916;28;20337;-66
2023/05/16 07:44:33;;;;;;;9.52;1.08;;;11.50;99.90;;;;;;4960646;28;20048;-65
2023/05/16 07:46:59;;;;;;;9.07;1.05;;;11.90;99.90;;;;;;4976999;28;20038;-66
2023/05/16 07:49:25;;;;;;;8.85;0.88;;;12.20;99.90;;;;;;4944206;28;20049;-65
2023/05/16 07:51:51;;;;;;;9.93;1.05;;;12.40;99.90;;;;;;4976138;28;20224;-66
2023/05/16 07:54:16;;;;;;;9.50;0.85;;;12.20;99.90;;;;;;4976622;28;20057;-66
2023/05/16 07:56:43;;;;;;;9.38;1.05;;;12.00;99.90;;;;;;5001401;28;20100;-67
2023/05/16 07:59:09;;;;;;;9.35;0.85;;;11.80;99.90;;;;;;4975866;28;20760;-66
2023/05/16 08:01:35;;;;;;;12.15;1.00;;;11.70;99.90;;;;;;4961824;28;20076;-65
2023/05/16 08:04:01;;;;;;;11.45;1.17;;;12.10;99.90;;;;;;4957745;28;20508;-68
2023/05/16 08:06:28;;;;;;;10.57;0.98;;;12.50;99.90;;;;;;4973684;28;20050;-66
2023/05/16 08:08:54;;;;;;;11.75;1.13;;;12.80;99.90;;;;;;4960190;28;20288;-68
2023/05/16 08:11:21;;;;;;;13.20;0.80;;;13.10;99.90;;;;;;4976713;28;20136;-65
2023/05/16 08:13:47;;;;;;;11.70;1.00;;;12.70;99.90;;;;;;5015796;28;20182;-67
2023/05/16 08:16:13;;;;;;;10.02;0.80;;;12.60;99.90;;;;;;4977029;28;20050;-66
2023/05/16 08:18:41;;;;;;;8.23;0.93;;;13.10;99.90;;;;;;4981166;28;20044;-66
2023/05/16 08:21:19;;;;;;;9.98;0.90;;;13.40;99.90;;;;;;4955237;28;20054;-66
2023/05/16 08:24:11;;;;;;;10.77;0.70;;;13.70;99.90;;;;;;5002576;28;20076;-66
2023/05/16 08:26:37;;;;;;;9.15;0.80;;;13.80;55.20;;;;;;4999172;28;20049;-66
2023/05/16 08:29:03;;;;;;;9.57;1.15;;;13.60;46.30;;;;;;4968494;28;20131;-68
2023/05/16 08:31:29;;;;;;;12.68;1.33;;;13.20;99.90;;;;;;4953767;28;20056;-65
2023/05/16 08:33:55;;;;;;;11.35;1.27;;;12.10;99.90;;;;;;4963362;28;20030;-66
2023/05/16 08:36:20;;;;;;;13.48;1.00;;;11.50;35.20;;;;;;4985863;28;20058;-65
2023/05/16 08:38:48;;;;;;;10.90;1.20;;;11.30;25.90;;;;;;4953873;28;20531;-67
2023/05/16 08:41:14;;;;;;;10.93;1.00;;;11.30;43.70;;;;;;4953849;28;20651;-65
2023/05/16 08:43:40;;;;;;;11.55;1.00;;;11.70;69.10;;;;;;4981257;28;20049;-66
2023/05/16 08:46:07;;;;;;;9.48;1.45;;;11.70;1.00;;;;;;4961047;28;20088;-66
2023/05/16 08:48:35;;;;;;;12.73;1.10;;;11.60;1.00;;;;;;4963872;28;20052;-65
2023/05/16 08:51:05;;;;;;;12.88;0.93;;;11.60;1.00;;;;;;4969426;28;20120;-68
2023/05/16 08:53:42;;;;;;;11.95;1.33;;;11.30;1.00;;;;;;4986497;28;20369;-65
2023/05/16 08:56:09;;;;;;;10.48;0.95;;;11.30;1.00;;;;;;4964929;28;20058;-66
2023/05/16 08:58:36;;;;;;;9.52;0.80;;;11.40;21.80;;;;;;4980972;28;20171;-65
2023/05/16 09:01:07;;;;;;;10.95;0.80;;;12.00;45.60;;;;;;4950260;28;20419;-68
2023/05/16 09:03:35;;;;;;;12.38;0.70;;;12.10;1.00;;;;;;4943051;28;20052;-66
2023/05/16 09:06:01;;;;;;;12.55;1.10;;;11.50;1.00;;;;;;4972740;28;20057;-68
2023/05/16 09:08:27;;;;;;;9.32;1.00;;;11.80;1.00;;;;;;4945757;28;20041;-66
2023/05/16 09:10:53;;;;;;;7.45;0.47;;;12.50;1.00;;;;;;4964830;28;20396;-67
2023/05/16 09:13:19;;;;;;;7.78;0.70;;;13.10;99.90;;;;;;4925313;28;20112;-65
2023/05/16 09:15:45;;;;;;;12.52;0.85;;;12.60;99.90;;;;;;4966970;28;20507;-66
2023/05/16 09:18:12;;;;;;;13.65;1.20;;;12.20;1.00;;;;;;4970679;28;20092;-66
2023/05/16 09:20:45;;;;;;;11.45;0.88;;;12.20;1.00;;;;;;4950181;28;20041;-66
2023/05/16 09:23:11;;;;;;;9.95;0.90;;;12.00;99.90;;;;;;4962189;28;20506;-66
2023/05/16 09:25:39;;;;;;;9.50;1.00;;;11.70;99.90;;;;;;4962865;28;20338;-66
2023/05/16 09:28:09;;;;;;;16.58;1.08;;;11.90;99.90;;;;;;4975185;28;20053;-65
2023/05/16 09:30:35;;;;;;;12.88;0.60;;;11.70;99.90;;;;;;4940556;28;20049;-65
2023/05/16 09:33:01;;;;;;;8.18;0.75;;;11.60;99.90;;;;;;4977559;28;20440;-65
2023/05/16 09:35:27;;;;;;;7.90;0.73;;;11.80;99.90;;;;;;4983862;28;20045;-65
2023/05/16 09:37:53;;;;;;;8.63;0.98;;;12.00;1.00;;;;;;4984973;28;20179;-65
2023/05/16 09:40:23;;;;;;;3.78;0.40;;;12.50;1.00;;;;;;4949848;28;20054;-65
2023/05/16 09:43:05;;;;;;;8.20;0.65;;;12.90;99.90;;;;;;4956665;28;20039;-65
2023/05/16 09:45:35;;;;;;;6.60;0.90;;;13.30;99.90;;;;;;4974792;28;20142;-66
2023/05/16 09:48:08;;;;;;;3.70;0.30;;;13.80;99.90;;;;;;4979464;28;20050;-67
2023/05/16 09:50:35;;;;;;;6.03;0.50;;;13.90;99.90;;;;;;4989104;28;20046;-66
2023/05/16 09:53:02;;;;;;;5.57;0.50;;;14.20;99.90;;;;;;4961551;28;20042;-66
2023/05/16 09:55:28;;;;;;;7.25;0.70;;;14.10;99.90;;;;;;4988523;28;20070;-66
2023/05/16 09:57:55;;;;;;;8.05;0.40;;;14.10;99.90;;;;;;4973557;28;20042;-66
2023/05/16 10:00:21;;;;;;;7.05;0.60;;;14.20;99.90;;;;;;4973732;28;20042;-66
2023/05/16 10:02:48;;;;;;;5.20;0.50;;;14.10;99.90;;;;;;4973487;28;20053;-66
2023/05/16 10:05:15;;;;;;;9.57;0.70;;;13.70;99.90;;;;;;4988210;28;20081;-65
2023/05/16 10:07:42;;;;;;;9.68;0.77;;;13.00;10.80;;;;;;4991901;28;20070;-65
2023/05/16 10:10:09;;;;;;;8.20;0.80;;;13.00;97.30;;;;;;4977972;28;20081;-65
2023/05/16 10:12:37;;;;;;;8.55;0.77;;;14.00;99.90;;;;;;4972660;28;20042;-66
2023/05/16 10:15:04;;;;;;;9.82;0.82;;;14.00;1.00;;;;;;4972892;28;20054;-66
2023/05/16 10:17:35;;;;;;;11.68;1.00;;;13.70;1.00;;;;;;4957153;28;20050;-66
2023/05/16 10:20:04;;;;;;;10.75;1.10;;;13.60;1.00;;;;;;4973365;28;20109;-66
2023/05/16 10:22:34;;;;;;;9.93;0.77;;;14.30;1.00;;;;;;4973019;28;20047;-66
2023/05/16 10:25:11;;;;;;;10.18;0.82;;;14.10;1.00;;;;;;4977653;28;20404;-66
2023/05/16 10:27:38;;;;;;;8.30;0.75;;;13.20;97.10;;;;;;4977856;28;20069;-66
2023/05/16 10:30:05;;;;;;;7.82;0.60;;;12.80;99.90;;;;;;4968866;28;20108;-65
2023/05/16 10:32:33;;;;;;;8.55;0.68;;;11.50;1.00;;;;;;5005230;28;20223;-66
2023/05/16 10:35:00;;;;;;;8.98;0.60;;;10.60;99.90;;;;;;4970559;28;20128;-66
2023/05/16 10:37:26;;;;;;;5.15;0.50;;;10.00;99.90;;;;;;5005577;28;20050;-66
2023/05/16 10:39:53;;;;;;;5.68;0.30;;;9.50;99.90;;;;;;4991434;28;20484;-66
2023/05/16 10:42:19;;;;;;;5.05;0.30;;;9.30;99.90;;;;;;4957181;28;20058;-66
2023/05/16 10:44:45;;;;;;;4.45;0.35;;;9.50;99.90;;;;;;4992155;28;20411;-65
2023/05/16 10:47:17;;;;;;;2.58;0.20;;;10.10;99.90;;;;;;4957527;28;20049;-65
2023/05/16 10:49:43;;;;;;;4.13;0.40;;;11.00;99.90;;;;;;4972545;28;20057;-65
2023/05/16 10:52:10;;;;;;;5.05;0.30;;;11.80;99.90;;;;;;4971646;28;20459;-65
2023/05/16 10:54:41;;;;;;;7.35;0.70;;;12.40;99.90;;;;;;4971045;28;20501;-65
2023/05/16 10:57:10;;;;;;;7.95;0.77;;;13.20;99.90;;;;;;4971975;28;20081;-66
2023/05/16 10:59:47;;;;;;;11.95;1.23;;;12.80;98.90;;;;;;4971573;28;20061;-66
2023/05/16 11:02:24;;;;;;;10.73;0.98;;;12.60;99.90;;;;;;4971151;28;20370;-66
2023/05/16 11:04:55;;;;;;;10.95;0.95;;;12.30;99.90;;;;;;4973476;28;20045;-68
2023/05/16 11:07:23;;;;;;;12.95;1.15;;;13.20;99.90;;;;;;5004151;28;20293;-66
2023/05/16 11:10:08;;;;;;;10.57;1.02;;;13.70;1.00;;;;;;4972939;28;20118;-66
2023/05/16 11:12:37;;;;;;;12.55;0.98;;;13.50;1.00;;;;;;4972466;28;20042;-66
2023/05/16 11:15:18;;;;;;;8.90;0.85;;;13.60;1.00;;;;;;4974663;28;20053;-68
2023/05/16 11:17:43;;;;;;;11.30;0.80;;;13.20;99.90;;;;;;4971603;28;20673;-66
2023/05/16 11:20:25;;;;;;;11.25;1.00;;;13.20;99.90;;;;;;4960629;28;20038;-67
2023/05/16 11:22:50;;;;;;;12.05;1.15;;;13.20;99.90;;;;;;4972553;28;20529;-65
2023/05/16 11:25:35;;;;;;;12.30;1.15;;;13.30;99.90;;;;;;4956144;28;20241;-65
2023/05/16 11:28:01;;;;;;;8.35;0.82;;;13.50;1.00;;;;;;4975488;28;20344;-66
2023/05/16 11:30:27;;;;;;;8.13;0.80;;;13.20;99.90;;;;;;4959112;28;20054;-68
2023/05/16 11:32:54;;;;;;;10.75;1.00;;;12.80;99.90;;;;;;4971157;28;20057;-65
2023/05/16 11:35:20;;;;;;;9.50;1.00;;;13.00;99.90;;;;;;4970012;28;20050;-66
2023/05/16 11:37:47;;;;;;;9.82;1.30;;;13.00;99.90;;;;;;4983172;28;20547;-65
2023/05/16 11:40:13;;;;;;;6.30;0.80;;;13.30;99.90;;;;;;4977115;28;20598;-66
2023/05/16 11:42:44;;;;;;;10.10;1.02;;;13.40;99.90;;;;;;4977247;28;20054;-66
2023/05/16 11:45:23;;;;;;;10.45;1.10;;;13.50;99.90;;;;;;4977290;28;20492;-66
2023/05/16 11:47:49;;;;;;;10.52;1.27;;;13.40;99.90;;;;;;4976049;28;20261;-66
2023/05/16 11:50:22;;;;;;;7.45;0.73;;;13.60;99.90;;;;;;4997244;28;20311;-66
2023/05/16 11:52:54;;;;;;;7.78;1.25;;;13.60;99.90;;;;;;4962854;28;20133;-66
2023/05/16 11:55:23;;;;;;;11.50;1.27;;;13.70;99.90;;;;;;4964489;28;20046;-66
2023/05/16 11:57:51;;;;;;;9.73;1.67;;;13.20;99.90;;;;;;4972763;28;20547;-66
2023/05/16 12:00:18;;;;;;;10.63;0.98;;;13.30;99.90;;;;;;4971780;28;20342;-66
2023/05/16 12:02:49;;;;;;;11.65;1.00;;;12.80;99.90;;;;;;4971313;28;20077;-66
2023/05/16 12:05:17;;;;;;;8.65;1.10;;;13.10;99.90;;;;;;4971482;28;20042;-66
2023/05/16 12:07:44;;;;;;;11.15;1.45;;;13.80;99.90;;;;;;4954651;28;20102;-65
2023/05/16 12:10:11;;;;;;;8.75;1.20;;;14.10;99.90;;;;;;4975782;28;20512;-66
2023/05/16 12:12:44;;;;;;;9.10;1.00;;;14.20;99.90;;;;;;4955209;28;20077;-67
2023/05/16 12:15:10;;;;;;;11.02;1.17;;;14.30;99.90;;;;;;4985543;28;20071;-64
2023/05/16 12:17:38;;;;;;;7.43;0.85;;;14.20;99.90;;;;;;4977017;28;20539;-65
2023/05/16 12:20:05;;;;;;;8.35;0.75;;;14.30;1.00;;;;;;4968570;28;20415;-66
2023/05/16 12:22:31;;;;;;;7.18;0.60;;;14.10;1.00;;;;;;4988921;28;20758;-65
2023/05/16 12:25:19;;;;;;;12.98;1.13;;;13.80;1.00;;;;;;4969971;28;20049;-66
2023/05/16 12:27:45;;;;;;;8.88;1.13;;;13.70;15.10;;;;;;4960741;28;20046;-66
2023/05/16 12:30:11;;;;;;;9.73;1.27;;;13.60;99.90;;;;;;4973023;28;20051;-66
2023/05/16 12:32:37;;;;;;;11.27;1.33;;;13.70;99.90;;;;;;4955910;28;20042;-65
2023/05/16 12:35:03;;;;;;;8.48;0.70;;;13.10;99.90;;;;;;4970496;28;20325;-65
2023/05/16 12:37:29;;;;;;;12.82;1.45;;;12.80;99.90;;;;;;4958736;28;20140;-66
2023/05/16 12:40:03;;;;;;;12.25;1.92;;;13.00;99.90;;;;;;4973731;28;20541;-66
2023/05/16 12:42:29;;;;;;;10.02;1.88;;;13.40;99.90;;;;;;4972031;28;20043;-67
2023/05/16 12:44:55;;;;;;;15.00;2.78;;;13.20;99.90;;;;;;4973145;28;20058;-66
2023/05/16 12:47:21;;;;;;;11.27;2.30;;;13.30;99.90;;;;;;4952726;28;20408;-65